Time;durP1;ratioP1;P1;durP2;ratioP2;P2;SDS_P1;SDS_P2;PMS_P1;PMS_P2;Temp;Humidity;BMP_temperature;BMP_pressure;BME280_temperature;BME280_humidity;BME280_pressure;Samples;Min_cycle;Max_cycle;Signal;HPM_P1;HPM_P2
2022/04/28 00:02:09;;;;;;;;;34.75;30.25;;;;;15.01;45.50;101876.78;5031826;28;45171;-70
2022/04/28 00:04:35;;;;;;;;;33.75;30.25;;;;;15.22;45.44;101915.03;5031654;28;45038;-69
2022/04/28 00:07:01;;;;;;;;;35.75;29.75;;;;;15.11;45.51;101897.69;5031017;28;45171;-69
2022/04/28 00:09:27;;;;;;;;;27.75;27.00;;;;;15.18;45.51;101909.53;5031636;28;45222;-67
2022/04/28 00:11:53;;;;;;;;;37.50;30.00;;;;;15.10;45.37;101902.19;5031229;28;45135;-67
2022/04/28 00:14:19;;;;;;;;;32.00;29.50;;;;;15.14;45.32;101913.94;5031139;28;46003;-68
2022/04/28 00:16:45;;;;;;;;;34.75;30.00;;;;;15.02;45.35;101887.59;5031104;28;44914;-74
2022/04/28 00:19:11;;;;;;;;;34.75;31.00;;;;;15.09;45.37;101905.72;5032634;28;45137;-70
2022/04/28 00:21:37;;;;;;;;;32.25;28.25;;;;;15.08;45.38;101921.88;5035016;28;44986;-71
2022/04/28 00:24:03;;;;;;;;;37.75;30.00;;;;;14.81;45.72;101877.16;5034489;28;45074;-71
2022/04/28 00:26:28;;;;;;;;;34.25;29.25;;;;;14.86;45.47;101885.38;5034218;28;45387;-69
2022/04/28 00:28:54;;;;;;;;;34.50;27.25;;;;;14.98;45.64;101903.63;5034872;28;44999;-74
2022/04/28 00:31:19;;;;;;;;;33.75;30.00;;;;;14.87;45.53;101900.66;5034706;28;44994;-72
2022/04/28 00:33:48;;;;;;;;;31.75;28.25;;;;;14.39;45.40;101818.63;5034651;28;45706;-71
2022/04/28 00:36:14;;;;;;;;;37.75;32.50;;;;;14.42;45.92;101825.84;5035017;28;45127;-69
2022/04/28 00:38:40;;;;;;;;;42.50;33.50;;;;;14.72;45.80;101885.91;5034422;28;44978;-69
2022/04/28 00:41:06;;;;;;;;;33.50;30.25;;;;;14.70;45.96;101878.66;5034439;28;45347;-69
2022/04/28 00:43:32;;;;;;;;;37.75;32.00;;;;;14.81;45.77;101912.16;5032377;28;45139;-69
2022/04/28 00:45:59;;;;;;;;;35.25;30.00;;;;;14.77;45.87;101899.50;5034612;28;44946;-70
2022/04/28 00:51:12;;;;;;;;;36.75;31.75;;;;;14.76;46.11;101911.13;5033857;28;45053;-69
2022/04/28 00:53:49;;;;;;;;;38.25;33.00;;;;;14.74;46.07;101899.41;5032407;28;45134;-69
2022/04/28 00:56:16;;;;;;;;;41.25;34.50;;;;;14.42;46.20;101852.75;5015548;28;45085;-69
2022/04/28 00:58:41;;;;;;;;;36.50;32.25;;;;;14.57;46.27;101894.44;5034357;28;45105;-70
2022/04/28 01:01:08;;;;;;;;;35.50;30.75;;;;;14.60;46.43;101887.34;5034567;28;45593;-72
2022/04/28 01:03:34;;;;;;;;;34.50;27.00;;;;;14.50;46.63;101875.38;5034474;28;45589;-69
2022/04/28 01:06:01;;;;;;;;;44.25;35.00;;;;;14.56;46.56;101902.44;5015738;28;45264;-70
2022/04/28 01:08:28;;;;;;;;;31.75;30.00;;;;;14.54;46.53;101907.78;5033393;28;45185;-70
2022/04/28 01:10:55;;;;;;;;;36.50;32.00;;;;;14.47;46.70;101897.72;5034338;28;45009;-70
2022/04/28 01:13:20;;;;;;;;;31.25;28.75;;;;;14.52;46.48;101914.00;5033121;28;45372;-66
2022/04/28 01:15:48;;;;;;;;;41.50;32.75;;;;;14.50;46.52;101903.19;5033937;28;45244;-69
2022/04/28 01:18:14;;;;;;;;;39.25;33.00;;;;;14.15;46.83;101859.16;5033664;28;45176;-71
2022/04/28 01:20:40;;;;;;;;;32.00;29.75;;;;;14.38;47.03;101905.53;5033315;28;45512;-67
2022/04/28 01:23:06;;;;;;;;;33.00;30.00;;;;;14.35;47.46;101898.28;5033964;28;45038;-69
2022/04/28 01:25:33;;;;;;;;;36.25;32.00;;;;;13.77;47.17;101798.03;5033691;28;45171;-69
2022/04/28 01:27:59;;;;;;;;;40.25;33.25;;;;;14.14;47.40;101882.44;5033124;28;45486;-68
2022/04/28 01:30:25;;;;;;;;;37.00;33.00;;;;;14.32;47.24;101910.72;5026649;28;45235;-69
2022/04/28 01:32:58;;;;;;;;;33.75;31.00;;;;;14.24;47.38;101898.81;5033202;28;45490;-72
2022/04/28 01:35:25;;;;;;;;;35.50;31.00;;;;;14.04;47.55;101866.91;5027105;28;45162;-70
2022/04/28 01:37:52;;;;;;;;;36.50;32.00;;;;;14.21;47.29;101896.97;5032386;28;45123;-69
2022/04/28 01:40:18;;;;;;;;;31.00;29.75;;;;;14.16;47.25;101912.03;5028102;28;45051;-70
2022/04/28 01:42:45;;;;;;;;;39.75;32.50;;;;;14.09;47.55;101891.19;5033569;28;45563;-69
2022/04/28 01:45:12;;;;;;;;;33.25;30.75;;;;;13.99;47.77;101881.94;5034028;28;45300;-69
2022/04/28 01:47:39;;;;;;;;;43.75;34.75;;;;;13.55;48.13;101819.72;5025652;28;45006;-70
2022/04/28 01:50:06;;;;;;;;;32.75;31.75;;;;;13.85;48.54;101878.84;5033433;28;45315;-69
2022/04/28 01:55:16;;;;;;;;;27.50;27.00;;;;;13.70;48.10;101873.00;5033505;28;45065;-68
2022/04/28 01:57:43;;;;;;;;;37.25;32.25;;;;;13.27;48.61;101808.06;5033445;28;44697;-67
2022/04/28 02:00:09;;;;;;;;;35.25;30.50;;;;;13.74;48.32;101891.03;5033279;28;45257;-69
2022/04/28 02:02:35;;;;;;;;;34.75;28.75;;;;;13.46;49.09;101855.22;5032167;28;45506;-70
2022/04/28 02:05:02;;;;;;;;;37.00;30.00;;;;;13.72;49.11;101898.13;5033655;28;45252;-69
2022/04/28 02:07:28;;;;;;;;;31.00;29.75;;;;;13.53;49.12;101884.13;5032856;28;45220;-67
2022/04/28 02:09:55;;;;;;;;;37.50;29.25;;;;;13.58;48.71;101886.97;5033586;28;44978;-69
2022/04/28 02:12:21;;;;;;;;;34.75;31.00;;;;;13.47;48.95;101867.81;5026493;28;45260;-67
2022/04/28 02:14:47;;;;;;;;;35.75;30.00;;;;;13.45;49.03;101858.78;5033243;28;45036;-69
2022/04/28 02:17:20;;;;;;;;;31.50;30.25;;;;;13.49;48.86;101883.97;5032969;28;44922;-68
2022/04/28 02:19:45;;;;;;;;;28.75;27.50;;;;;13.53;48.57;101893.94;5033494;28;45045;-74
2022/04/28 02:22:11;;;;;;;;;36.75;32.50;;;;;13.60;49.04;101912.09;5031941;28;45670;-68
2022/04/28 02:24:37;;;;;;;;;32.00;27.00;;;;;13.47;49.01;101886.59;5023239;28;45227;-70
2022/04/28 02:27:02;;;;;;;;;28.25;26.75;;;;;13.56;49.51;101907.44;5010135;28;45195;-70
2022/04/28 02:29:28;;;;;;;;;38.75;28.00;;;;;13.56;49.20;101907.44;5031896;28;45177;-71
2022/04/28 02:31:53;;;;;;;;;36.25;29.00;;;;;13.47;48.73;101896.44;5031846;28;45676;-70
2022/04/28 02:34:19;;;;;;;;;34.75;30.50;;;;;13.24;48.76;101862.53;5032156;28;45209;-69
2022/04/28 02:36:45;;;;;;;;;28.50;24.00;;;;;13.22;49.53;101887.53;5033131;28;45112;-67
2022/04/28 02:39:12;;;;;;;;;33.50;31.25;;;;;13.32;49.04;101903.09;5033314;28;45160;-67
2022/04/28 02:41:38;;;;;;;;;36.00;29.00;;;;;13.07;49.82;101874.50;5031632;28;45196;-67
2022/04/28 02:44:04;;;;;;;;;30.50;29.00;;;;;13.10;49.59;101890.72;5032627;28;45103;-69
2022/04/28 02:46:31;;;;;;;;;27.00;25.00;;;;;13.05;49.56;101884.25;5031035;28;45255;-69
2022/04/28 02:48:57;;;;;;;;;28.25;23.25;;;;;13.21;49.47;101916.09;5031368;28;45071;-69
2022/04/28 02:51:22;;;;;;;;;33.25;29.50;;;;;13.12;49.92;101896.13;5032789;28;45562;-68
2022/04/28 02:53:48;;;;;;;;;27.50;27.50;;;;;12.98;50.25;101869.72;5032901;28;45166;-69
2022/04/28 02:56:14;;;;;;;;;35.25;31.00;;;;;13.18;50.42;101899.94;5031619;28;45123;-70
2022/04/28 02:58:39;;;;;;;;;33.25;28.50;;;;;13.05;50.13;101889.59;5032666;28;45132;-68
2022/04/28 03:01:05;;;;;;;;;33.25;29.50;;;;;12.94;49.75;101874.94;5032462;28;45510;-70
2022/04/28 03:03:31;;;;;;;;;38.00;26.00;;;;;13.21;50.13;101918.78;5031791;28;45039;-69
2022/04/28 03:11:27;;;;;;;;;39.75;31.25;;;;;13.13;50.19;101925.66;5031778;28;45159;-69
2022/04/28 03:13:54;;;;;;;;;39.50;31.75;;;;;12.87;49.85;101888.13;5032050;28;45190;-69
2022/04/28 03:16:20;;;;;;;;;36.50;31.75;;;;;12.98;50.39;101901.91;5032182;28;45094;-69
2022/04/28 03:18:45;;;;;;;;;32.25;28.50;;;;;12.83;49.21;101880.81;5031466;28;44962;-69
2022/04/28 03:21:13;;;;;;;;;33.50;28.25;;;;;12.96;50.33;101906.31;5010555;28;45826;-71
2022/04/28 03:23:38;;;;;;;;;28.00;27.75;;;;;13.02;49.83;101930.69;5028187;28;45265;-70
2022/04/28 03:26:04;;;;;;;;;34.75;29.75;;;;;13.00;50.20;101927.03;5029981;28;44894;-69
2022/04/28 03:28:34;;;;;;;;;29.50;26.50;;;;;12.95;50.89;101928.66;5030531;28;45037;-69
2022/04/28 03:31:01;;;;;;;;;33.00;30.50;;;;;12.95;50.87;101919.66;5030415;28;45771;-69
2022/04/28 03:33:27;;;;;;;;;31.50;27.00;;;;;12.89;50.31;101912.31;5029932;28;45576;-70
2022/04/28 03:35:53;;;;;;;;;33.50;29.75;;;;;12.98;50.20;101927.81;5027347;28;45344;-70
2022/04/28 03:38:18;;;;;;;;;34.75;32.75;;;;;12.89;50.24;101925.75;5032629;28;45105;-70
2022/04/28 03:40:44;;;;;;;;;36.50;32.00;;;;;12.89;50.89;101925.75;5030534;28;45557;-69
2022/04/28 03:43:10;;;;;;;;;37.50;29.25;;;;;12.85;50.51;101926.47;5031145;28;45041;-69
2022/04/28 03:45:37;;;;;;;;;35.00;31.25;;;;;12.90;50.98;101935.59;5031227;28;45105;-73
2022/04/28 03:48:03;;;;;;;;;29.75;29.50;;;;;12.82;50.08;101929.03;5030386;28;45214;-69
2022/04/28 03:50:30;;;;;;;;;36.75;30.75;;;;;12.83;51.07;101926.41;5031330;28;45238;-68
2022/04/28 03:52:59;;;;;;;;;34.00;30.00;;;;;12.67;50.89;101906.19;5031166;28;45150;-69
2022/04/28 03:55:25;;;;;;;;;37.50;31.00;;;;;12.81;51.60;101935.28;5031650;28;45119;-69
2022/04/28 03:57:51;;;;;;;;;35.75;31.00;;;;;12.69;51.55;101919.66;5031810;28;45133;-69
2022/04/28 04:00:17;;;;;;;;;32.50;30.00;;;;;12.77;51.30;101927.97;5031379;28;45068;-71
2022/04/28 04:02:43;;;;;;;;;32.25;28.50;;;;;12.65;50.96;101912.34;5031013;28;45144;-71
2022/04/28 04:05:09;;;;;;;;;41.50;35.00;;;;;12.48;50.78;101879.56;5031306;28;44965;-70
2022/04/28 04:07:38;;;;;;;;;38.25;31.00;;;;;12.71;51.64;101921.53;5032289;28;45196;-70
2022/04/28 04:10:08;;;;;;;;;35.50;30.75;;;;;12.84;51.28;101943.44;5031443;28;45789;-69
2022/04/28 04:12:33;;;;;;;;;35.00;28.25;;;;;12.69;50.67;101927.69;5030396;28;45112;-70
2022/04/28 04:14:59;;;;;;;;;37.50;33.25;;;;;12.76;51.24;101940.47;5031447;28;45393;-69
2022/04/28 04:17:25;;;;;;;;;34.75;29.75;;;;;12.63;51.73;101928.38;5031202;28;45147;-71
2022/04/28 04:19:50;;;;;;;;;38.00;32.00;;;;;12.77;51.12;101952.09;5031454;28;45492;-67
2022/04/28 04:22:16;;;;;;;;;39.25;33.25;;;;;12.60;50.99;101920.22;5031642;28;45048;-71
2022/04/28 04:24:42;;;;;;;;;37.25;31.75;;;;;12.75;52.20;101954.72;5029270;28;45021;-68
2022/04/28 04:27:08;;;;;;;;;31.00;29.25;;;;;12.65;51.09;101944.50;5031744;28;44949;-69
2022/04/28 04:29:33;;;;;;;;;38.25;34.25;;;;;12.73;51.90;101957.34;5028956;28;45541;-70
2022/04/28 04:34:43;;;;;;;;;38.50;32.75;;;;;12.60;51.69;101946.13;5031360;28;45171;-67
2022/04/28 04:37:09;;;;;;;;;35.50;31.50;;;;;12.43;51.87;101914.22;5031106;28;45258;-69
2022/04/28 04:39:35;;;;;;;;;37.75;31.00;;;;;12.45;51.50;101923.22;5030553;28;45242;-70
2022/04/28 04:42:00;;;;;;;;;31.50;30.00;;;;;12.58;51.80;101948.75;5031541;28;45067;-69
2022/04/28 04:44:26;;;;;;;;;33.75;29.25;;;;;12.58;51.72;101951.41;5030723;28;45075;-69
2022/04/28 04:46:51;;;;;;;;;43.00;33.00;;;;;12.67;51.34;101972.28;5024077;28;45238;-69
2022/04/28 04:49:17;;;;;;;;;36.00;32.25;;;;;12.64;52.15;101977.56;5031107;28;45543;-70
2022/04/28 04:51:53;;;;;;;;;40.75;30.25;;;;;12.62;51.88;101974.81;5029692;28;45135;-71
2022/04/28 04:54:20;;;;;;;;;35.25;32.25;;;;;12.45;52.17;101947.34;5029301;28;45080;-70
2022/04/28 04:56:45;;;;;;;;;41.00;31.25;;;;;12.29;51.64;101932.47;5023450;28;45049;-68
2022/04/28 04:59:11;;;;;;;;;35.75;31.25;;;;;12.38;52.39;101945.31;5030598;28;45897;-70
2022/04/28 05:01:36;;;;;;;;;43.25;32.00;;;;;12.56;51.85;101977.25;5007931;28;44996;-74
2022/04/28 05:04:02;;;;;;;;;33.00;31.50;;;;;12.53;52.21;101985.19;5029424;28;45455;-70
2022/04/28 05:06:27;;;;;;;;;41.50;32.25;;;;;12.42;51.95;101970.44;5033604;28;45506;-71
2022/04/28 05:08:53;;;;;;;;;41.50;33.00;;;;;12.52;52.07;101983.34;5015424;28;45873;-69
2022/04/28 05:11:18;;;;;;;;;42.00;34.00;;;;;12.43;51.83;101977.66;5033030;28;45221;-68
2022/04/28 05:13:44;;;;;;;;;42.00;33.25;;;;;12.03;51.60;101901.06;5033066;28;45188;-72
2022/04/28 05:16:10;;;;;;;;;31.75;29.50;;;;;12.55;52.58;101986.16;5033810;28;45125;-67
2022/04/28 05:18:35;;;;;;;;;35.50;29.00;;;;;12.38;51.73;101964.06;5032621;28;45604;-73
2022/04/28 05:21:01;;;;;;;;;48.75;36.25;;;;;12.41;51.89;101974.91;5031381;28;45240;-71
2022/04/28 05:23:26;;;;;;;;;44.00;34.75;;;;;12.51;51.85;101992.25;5031579;28;45223;-70
2022/04/28 05:25:52;;;;;;;;;39.50;33.00;;;;;12.34;52.36;101962.09;5033115;28;45192;-69
2022/04/28 05:28:17;;;;;;;;;41.50;33.00;;;;;12.50;52.41;102006.50;5033572;28;45859;-69
2022/04/28 05:30:42;;;;;;;;;49.25;38.25;;;;;12.34;53.07;101984.47;5031855;28;46207;-68
2022/04/28 05:33:08;;;;;;;;;43.25;34.00;;;;;12.39;52.70;101978.38;5030695;28;45282;-69
2022/04/28 05:35:38;;;;;;;;;39.25;32.00;;;;;12.46;52.75;102010.84;5032016;28;45103;-70
2022/04/28 05:38:04;;;;;;;;;44.00;34.50;;;;;12.38;51.74;101982.84;5033453;28;45050;-67
2022/04/28 05:40:30;;;;;;;;;46.00;35.75;;;;;12.51;52.26;102000.31;5030468;28;45074;-70
2022/04/28 05:45:43;;;;;;;;;42.50;34.00;;;;;12.67;52.04;102020.56;5033527;28;45025;-67
2022/04/28 05:48:09;;;;;;;;;38.50;35.50;;;;;12.78;52.66;102031.69;5032361;28;46565;-68
2022/04/28 05:50:35;;;;;;;;;43.00;34.75;;;;;12.55;51.89;101988.81;5033420;28;45089;-66
2022/04/28 05:53:01;;;;;;;;;47.50;39.50;;;;;12.64;51.86;101997.22;5033183;28;45184;-66
2022/04/28 05:55:26;;;;;;;;;42.50;35.75;;;;;12.75;51.77;102012.81;5032195;28;45037;-69
2022/04/28 05:57:51;;;;;;;;;50.25;37.50;;;;;12.81;51.54;102021.09;5031048;28;45990;-73
2022/04/28 06:00:17;;;;;;;;;48.50;37.50;;;;;12.90;51.32;102027.72;5032861;28;45048;-67
2022/04/28 06:02:42;;;;;;;;;44.75;35.00;;;;;12.89;51.67;102036.59;5031522;28;45443;-68
2022/04/28 06:05:08;;;;;;;;;41.00;32.25;;;;;12.76;52.10;102010.19;5029105;28;45408;-69
2022/04/28 06:07:33;;;;;;;;;48.25;39.25;;;;;12.99;52.10;102047.69;5032639;28;45275;-68
2022/04/28 06:09:59;;;;;;;;;49.75;37.50;;;;;13.04;50.79;102040.72;5029176;28;45362;-67
2022/04/28 06:12:28;;;;;;;;;46.75;35.00;;;;;12.69;50.93;101975.97;5030786;28;45239;-75
2022/04/28 06:14:54;;;;;;;;;53.75;41.25;;;;;12.90;51.36;102035.78;5032402;28;45242;-68
2022/04/28 06:17:20;;;;;;;;;46.75;37.00;;;;;13.04;51.13;102052.38;5031651;28;45421;-68
2022/04/28 06:19:45;;;;;;;;;45.75;35.50;;;;;13.05;51.69;102043.47;5025794;28;45085;-68
2022/04/28 06:22:11;;;;;;;;;43.75;36.50;;;;;13.02;51.90;102034.41;5028369;28;45454;-70
2022/04/28 06:24:37;;;;;;;;;46.50;37.00;;;;;13.09;51.30;102053.44;5013792;28;45108;-75
2022/04/28 06:27:03;;;;;;;;;46.25;38.75;;;;;12.86;51.46;102015.03;5016713;28;45097;-68
2022/04/28 06:29:28;;;;;;;;;40.50;35.75;;;;;13.12;51.68;102066.06;5036076;28;45100;-70
2022/04/28 06:31:54;;;;;;;;;47.00;37.00;;;;;12.92;51.43;102019.72;5029116;28;45097;-68
2022/04/28 06:34:19;;;;;;;;;51.25;37.75;;;;;13.15;52.33;102068.88;5030567;28;45184;-69
2022/04/28 06:36:44;;;;;;;;;48.75;39.25;;;;;13.06;51.82;102055.09;5028555;28;46490;-77
2022/04/28 06:39:10;;;;;;;;;46.00;35.50;;;;;12.99;51.85;102035.19;5030018;28;45241;-68
2022/04/28 06:41:35;;;;;;;;;46.00;38.00;;;;;13.16;51.34;102068.00;5029186;28;45441;-70
2022/04/28 06:44:01;;;;;;;;;47.75;40.00;;;;;13.11;51.56;102071.38;5028651;28;45443;-68
2022/04/28 06:46:26;;;;;;;;;48.75;38.75;;;;;12.93;51.39;102029.59;5024831;28;45660;-70
2022/04/28 06:48:51;;;;;;;;;51.75;39.75;;;;;12.98;51.42;102036.03;5030271;28;45415;-68
2022/04/28 06:51:17;;;;;;;;;46.25;38.50;;;;;13.23;51.21;102074.50;5010145;28;45803;-71
2022/04/28 06:53:42;;;;;;;;;48.75;38.00;;;;;13.25;51.47;102078.19;5015010;28;45285;-70
2022/04/28 06:56:08;;;;;;;;;47.50;38.00;;;;;13.33;51.40;102078.47;5012655;28;46048;-69
2022/04/28 06:58:35;;;;;;;;;46.75;36.50;;;;;13.38;51.75;102084.91;5007616;28;45727;-69
2022/04/28 07:01:00;;;;;;;;;45.00;36.50;;;;;13.31;51.28;102053.31;5013458;28;45479;-69
2022/04/28 07:03:26;;;;;;;;;47.75;38.50;;;;;13.41;51.27;102064.50;5009313;28;45419;-69
2022/04/28 07:05:53;;;;;;;;;48.75;40.25;;;;;13.54;50.81;102067.59;5020189;28;45572;-72
2022/04/28 07:08:18;;;;;;;;;48.25;38.75;;;;;13.71;50.78;102076.25;5011864;28;45434;-70
2022/04/28 07:10:44;;;;;;;;;57.25;43.25;;;;;13.78;50.54;102067.56;5009584;28;46205;-71
2022/04/28 07:13:09;;;;;;;;;41.75;35.25;;;;;13.89;50.02;102082.28;5012744;28;45549;-73
2022/04/28 07:15:36;;;;;;;;;52.50;42.50;;;;;13.52;49.86;102003.09;5012697;28;45510;-81
2022/04/28 07:18:03;;;;;;;;;51.50;38.50;;;;;14.00;49.77;102067.41;5023824;28;45308;-71
2022/04/28 07:20:30;;;;;;;;;42.00;36.25;;;;;14.19;49.90;102087.75;5000716;28;45642;-68
2022/04/28 07:22:56;;;;;;;;;50.00;39.00;;;;;14.29;49.80;102091.66;5011369;28;44936;-67
2022/04/28 07:25:21;;;;;;;;;47.75;37.25;;;;;14.29;49.29;102072.84;5020278;28;47010;-69
2022/04/28 07:27:47;;;;;;;;;53.25;40.25;;;;;14.24;49.33;102052.97;5018607;28;45378;-74
2022/04/28 07:30:13;;;;;;;;;43.75;36.50;;;;;14.51;48.86;102082.50;5004397;28;45637;-69
2022/04/28 07:32:38;;;;;;;;;47.50;37.25;;;;;14.60;48.66;102073.88;5015659;28;45336;-67
2022/04/28 07:35:04;;;;;;;;;48.75;39.25;;;;;14.52;48.31;102041.31;5007973;28;45731;-69
2022/04/28 07:37:29;;;;;;;;;46.00;39.50;;;;;14.86;48.32;102090.78;5012646;28;45477;-68
2022/04/28 07:39:54;;;;;;;;;50.00;40.00;;;;;14.73;48.13;102050.91;5013252;28;45393;-68
2022/04/28 07:42:20;;;;;;;;;49.75;41.00;;;;;14.83;47.99;102049.41;5013186;28;45439;-66
2022/04/28 07:44:45;;;;;;;;;46.50;38.00;;;;;15.23;47.81;102102.66;5012865;28;45907;-67
2022/04/28 07:47:11;;;;;;;;;46.25;37.75;;;;;15.30;47.00;102095.66;5006729;28;45359;-67
2022/04/28 07:49:36;;;;;;;;;42.00;36.00;;;;;15.01;47.14;102022.13;5015437;28;45833;-66
2022/04/28 07:52:02;;;;;;;;;51.00;39.50;;;;;15.43;46.90;102089.75;5012157;28;45358;-68
2022/04/28 07:54:27;;;;;;;;;45.75;38.00;;;;;15.59;46.54;102085.69;5020165;28;45915;-68
2022/04/28 07:56:53;;;;;;;;;52.75;40.00;;;;;15.77;46.45;102098.78;5005430;28;45381;-69
2022/04/28 07:59:18;;;;;;;;;48.25;37.50;;;;;15.92;45.85;102100.97;5006110;28;45986;-68
2022/04/28 08:01:43;;;;;;;;;46.75;38.75;;;;;15.95;46.27;102084.84;5014602;28;45494;-68
2022/04/28 08:04:09;;;;;;;;;51.00;36.75;;;;;16.12;45.57;102081.69;5008499;28;45611;-69
2022/04/28 08:06:34;;;;;;;;;43.25;35.25;;;;;15.97;45.61;102029.22;5008935;28;46579;-73
2022/04/28 08:09:00;;;;;;;;;41.50;33.25;;;;;16.52;44.72;102098.84;5010655;28;45527;-68
2022/04/28 08:11:25;;;;;;;;;45.50;39.00;;;;;16.64;44.47;102109.00;5012399;28;45777;-71
2022/04/28 08:13:50;;;;;;;;;46.25;35.50;;;;;16.74;44.17;102102.94;4992615;28;46969;-68
2022/04/28 08:16:16;;;;;;;;;41.00;34.25;;;;;16.76;44.13;102101.19;5009292;28;45454;-69
2022/04/28 08:18:41;;;;;;;;;40.00;32.75;;;;;16.85;43.44;102090.63;5010170;28;45371;-68
2022/04/28 08:21:08;;;;;;;;;48.50;36.75;;;;;16.73;43.08;102072.34;5005831;28;45350;-68
2022/04/28 08:23:36;;;;;;;;;47.25;39.00;;;;;17.00;43.10;102105.34;5012659;28;46146;-68
2022/04/28 08:26:02;;;;;;;;;46.50;37.00;;;;;17.07;43.27;102105.50;5010795;28;45282;-68
2022/04/28 08:28:27;;;;;;;;;53.75;39.25;;;;;17.18;42.93;102105.75;5010014;28;45514;-68
2022/04/28 08:30:53;;;;;;;;;42.25;36.75;;;;;17.27;42.69;102105.00;4983158;28;45529;-68
2022/04/28 08:33:18;;;;;;;;;42.75;37.00;;;;;17.40;42.53;102111.59;5007644;28;46362;-67
2022/04/28 08:35:43;;;;;;;;;42.00;35.00;;;;;17.30;42.39;102070.88;5011244;28;45487;-68
2022/04/28 08:38:09;;;;;;;;;40.00;34.50;;;;;17.65;41.95;102105.78;5012545;28;45503;-68
2022/04/28 08:40:34;;;;;;;;;43.25;35.50;;;;;17.53;41.63;102065.00;5012408;28;45497;-68
2022/04/28 08:43:03;;;;;;;;;41.00;36.00;;;;;17.89;41.53;102115.25;5013007;28;46226;-68
2022/04/28 08:45:29;;;;;;;;;35.75;33.75;;;;;17.84;41.19;102069.19;4997582;28;45429;-69
2022/04/28 08:47:57;;;;;;;;;33.75;29.00;;;;;18.13;41.31;102087.75;5011696;28;45383;-67
2022/04/28 08:50:23;;;;;;;;;36.00;35.00;;;;;18.21;40.88;102090.56;5013232;28;45443;-69
2022/04/28 08:52:49;;;;;;;;;34.50;30.50;;;;;18.42;40.63;102106.22;5015986;28;46637;-69
2022/04/28 08:55:16;;;;;;;;;46.75;35.75;;;;;18.27;40.18;102057.31;5015013;28;45518;-68
2022/04/28 08:57:41;;;;;;;;;29.50;27.25;;;;;18.56;39.58;102098.31;5016996;28;45395;-69
2022/04/28 09:00:07;;;;;;;;;32.25;32.00;;;;;18.64;39.67;102106.56;5015348;28;45894;-68
2022/04/28 09:02:33;;;;;;;;;36.75;31.00;;;;;18.55;39.98;102069.44;5014631;28;45391;-68
2022/04/28 09:05:04;;;;;;;;;32.00;27.00;;;;;18.81;39.67;102088.78;5025943;28;45279;-68
2022/04/28 09:07:39;;;;;;;;;40.50;33.75;;;;;18.87;39.03;102087.97;5016275;28;45432;-68
2022/04/28 09:10:26;;;;;;;;;32.75;30.00;;;;;18.72;39.36;102069.69;5021076;28;45550;-68
2022/04/28 09:15:50;;;;;;;;;33.75;29.25;;;;;18.89;39.06;102078.97;5008342;28;45419;-69
2022/04/28 09:18:16;;;;;;;;;27.25;27.00;;;;;18.91;38.86;102068.19;5013189;28;45716;-67
2022/04/28 09:20:43;;;;;;;;;30.75;27.00;;;;;19.11;39.11;102085.56;5007566;28;45810;-68
2022/04/28 09:23:10;;;;;;;;;31.75;27.75;;;;;19.01;38.78;102051.16;4997445;28;46347;-68
2022/04/28 09:25:38;;;;;;;;;31.00;28.25;;;;;18.93;38.25;102034.78;5013552;28;45537;-69
2022/04/28 09:28:03;;;;;;;;;35.00;28.00;;;;;18.86;38.23;102022.06;5014851;28;45586;-67
2022/04/28 09:30:47;;;;;;;;;32.50;28.25;;;;;18.93;38.48;102023.06;5014965;28;45638;-68
2022/04/28 09:33:14;;;;;;;;;29.50;24.00;;;;;19.29;38.26;102070.44;5014277;28;46281;-69
2022/04/28 09:35:48;;;;;;;;;22.75;21.50;;;;;19.24;37.69;102035.16;4995238;28;45415;-67
2022/04/28 09:38:13;;;;;;;;;33.75;25.25;;;;;19.32;37.46;102043.38;5014867;28;45379;-67
2022/04/28 09:43:23;;;;;;;;;36.00;31.75;;;;;19.69;37.44;102071.75;5017821;28;45733;-68
2022/04/28 09:45:50;;;;;;;;;28.00;27.25;;;;;19.81;37.10;102071.00;5017452;28;45447;-68
2022/04/28 09:48:17;;;;;;;;;26.50;24.75;;;;;19.94;36.69;102065.69;5014300;28;45443;-68
2022/04/28 09:50:43;;;;;;;;;28.00;23.25;;;;;19.81;36.69;102021.28;5012911;28;45605;-68
2022/04/28 09:53:08;;;;;;;;;29.75;27.00;;;;;20.13;36.54;102058.59;5013760;28;46120;-69
2022/04/28 09:55:35;;;;;;;;;26.25;25.00;;;;;20.16;36.39;102046.00;5014324;28;45519;-67
2022/04/28 09:58:03;;;;;;;;;25.25;22.00;;;;;20.11;36.05;102042.31;5013741;28;45515;-67
2022/04/28 10:00:29;;;;;;;;;32.25;26.00;;;;;20.21;36.10;102056.84;5013996;28;45448;-68
2022/04/28 10:02:55;;;;;;;;;28.75;25.00;;;;;20.16;35.46;102045.06;4995023;28;48078;-68
2022/04/28 10:05:23;;;;;;;;;25.25;23.00;;;;;20.26;35.82;102055.13;5007262;28;45285;-68
2022/04/28 10:07:50;;;;;;;;;28.50;24.25;;;;;20.17;35.22;102041.47;4995806;28;45517;-67
2022/04/28 10:10:16;;;;;;;;;21.25;20.25;;;;;20.10;35.23;102017.91;5011833;28;45451;-67
2022/04/28 10:12:41;;;;;;;;;22.50;22.25;;;;;20.27;34.59;102048.78;5009439;28;45555;-67
2022/04/28 10:15:09;;;;;;;;;18.50;14.50;;;;;20.03;34.83;102003.41;5014172;28;45499;-71
2022/04/28 10:18:08;;;;;;;;;20.50;19.00;;;;;20.18;35.01;102008.03;5013700;28;45503;-69
2022/04/28 10:20:41;;;;;;;;;29.25;21.75;;;;;20.27;34.88;102015.31;5002851;28;45580;-68
2022/04/28 10:23:09;;;;;;;;;24.00;20.25;;;;;20.32;33.85;102008.09;5013645;28;45554;-69
2022/04/28 10:34:14;;;;;;;;;24.50;22.75;;;;;20.70;33.89;102024.63;5011976;28;45912;-67
2022/04/28 10:37:11;;;;;;;;;21.00;15.25;;;;;20.88;33.38;102031.94;5022258;28;45328;-68
2022/04/28 10:39:42;;;;;;;;;22.25;22.25;;;;;20.94;33.22;102015.69;5003814;28;45465;-68
2022/04/28 10:42:12;;;;;;;;;20.25;18.50;;;;;20.97;33.25;102003.94;5006866;28;45691;-68
2022/04/28 10:44:54;;;;;;;;;22.50;20.00;;;;;21.11;32.61;102021.16;5012028;28;47187;-67
2022/04/28 10:47:29;;;;;;;;;18.50;17.50;;;;;21.15;32.70;102014.84;4993960;28;45661;-67
2022/04/28 10:49:55;;;;;;;;;20.50;15.50;;;;;21.22;32.31;102023.94;5009125;28;45495;-66
2022/04/28 10:52:25;;;;;;;;;15.50;13.50;;;;;21.26;31.96;102030.28;5014234;28;45446;-69
2022/04/28 10:54:52;;;;;;;;;18.25;17.75;;;;;21.27;32.09;102030.28;5019018;28;46522;-69
2022/04/28 10:57:18;;;;;;;;;13.25;13.25;;;;;20.98;32.17;101967.69;5012561;28;45421;-69
2022/04/28 10:59:49;;;;;;;;;17.75;15.75;;;;;21.32;32.15;102011.28;5012540;28;45441;-68
2022/04/28 11:02:17;;;;;;;;;23.00;20.50;;;;;21.28;32.48;102006.72;5012807;28;45581;-69
2022/04/28 11:04:48;;;;;;;;;15.00;14.00;;;;;21.05;32.64;101991.28;5012379;28;45684;-72
2022/04/28 11:07:20;;;;;;;;;21.25;20.75;;;;;21.16;32.94;102024.78;5016879;28;45640;-68
2022/04/28 11:10:03;;;;;;;;;17.25;14.25;;;;;21.09;31.99;102012.09;5017150;28;45710;-68
2022/04/28 11:12:37;;;;;;;;;13.75;13.75;;;;;21.11;32.00;102001.25;5007917;28;45449;-69
2022/04/28 11:15:06;;;;;;;;;18.25;16.50;;;;;21.21;31.05;102013.94;5014827;28;46447;-68
2022/04/28 11:17:33;;;;;;;;;14.00;12.33;;;;;21.22;31.13;102001.25;5014102;28;45617;-67
2022/04/28 11:20:04;;;;;;;;;14.75;12.00;;;;;21.25;31.25;102009.41;5012399;28;45597;-72
2022/04/28 11:22:30;;;;;;;;;12.50;12.50;;;;;21.47;30.59;102019.47;5013413;28;45553;-68
2022/04/28 11:24:59;;;;;;;;;13.25;12.75;;;;;21.42;30.77;101985.91;5012744;28;46022;-68
2022/04/28 11:27:30;;;;;;;;;17.00;16.75;;;;;21.66;29.83;102006.81;5013053;28;45461;-69
2022/04/28 11:29:57;;;;;;;;;14.33;13.33;;;;;21.77;30.19;102003.19;5013063;28;45411;-67
2022/04/28 11:32:22;;;;;;;;;13.33;12.67;;;;;21.85;28.99;102007.72;5012932;28;45451;-68
2022/04/28 11:34:50;;;;;;;;;17.00;17.00;;;;;21.79;29.46;102006.81;5012708;28;45386;-67
2022/04/28 11:37:17;;;;;;;;;12.33;10.67;;;;;21.90;29.12;102021.31;5009894;28;45458;-68
2022/04/28 11:39:44;;;;;;;;;11.33;11.33;;;;;21.76;29.30;102010.41;5015772;28;45625;-68